< < Back
Terminal Aerodrome Forecast


Current Version              Previous Versions:   1  2  3  4  5  6  7  8  9  

Terminal Aerodrome Forecast

612
FTUS42 KTAE 250500
TAFTLH
TAF
KTLH 250520Z 2506/2606 00000KT P6SM SKC
     FM251400 25005KT P6SM SCT050 SCT250
     FM251700 21008KT P6SM VCTS BKN050CB BKN250
     FM260000 22006KT P6SM SCT050 BKN250=

Latest METAR

478
SAUS80 KWBC 260500
MTRTLH
METAR KTLH 260453Z AUTO 00000KT 10SM CLR 26/23 A3004 RMK AO2 SLP171
T02560228 403330233


USA.gov is the U.S. government's official web portal to all federal, state and local government web resources and services.